To NAV CANADA Home Page Login to a new session Search on AWWS site Feedback and Comments Disclaimer Vers la page française équivalente Tips FAQ What's new on the site To the Forecasts and Observations / NOTAM section To "File a Flight Plan" website Publications and other links Update of the User's profile FIC Telephone Numbers My Weather Data Folder Route Weather Data Regional Weather Data Local Weather Data To the Forecasts and Observations / NOTAM section
Request Generated 09/04/2015 at 14:26:57 UTC . Weather information available at that time is displayed.

METAR/TAF

TORONTO/LESTER B. PEARSON INTL/ON    

METAR CYYZ 041400Z 11010KT 15SM BKN260 25/17 A3010 RMK CI6 SLP190
DENSITY ALT 1600FT=
METAR CYYZ 041300Z 09006KT 15SM FEW035 FEW180 BKN260 24/18 A3009 RMK
CU1AC1CI6 CU TR AC TR SLP187 DENSITY ALT 1500FT=
METAR CYYZ 041200Z 07009KT 15SM FEW180 BKN260 22/18 A3008 RMK AC1CI5
SLP184 DENSITY ALT 1300FT=

TAF CYYZ 041138Z 0412/0518 08006KT P6SM FEW030 BKN260
BECMG 0414/0416 09012KT
FM050300 07007KT P6SM SKC
BECMG 0507/0509 VRB03KT
BECMG 0514/0516 19010KT
RMK NXT FCST BY 041500Z=
Your time UTC time
Weather data provided by Environment Canada and NAV CANADA